sensor_id;sensor_type;location;lat;lon;timestamp;pressure;altitude;pressure_sealevel;temperature;humidity
58622;BME280;44389;51.578;5.456;2023-05-03T00:01:31;102772.28;;;3.16;100.00
58622;BME280;44389;51.578;5.456;2023-05-03T00:03:57;102777.78;;;3.02;100.00
58622;BME280;44389;51.578;5.456;2023-05-03T00:06:22;102771.78;;;3.10;100.00
58622;BME280;44389;51.578;5.456;2023-05-03T00:08:47;102776.47;;;2.96;100.00
58622;BME280;44389;51.578;5.456;2023-05-03T00:11:13;102764.03;;;3.00;100.00
58622;BME280;44389;51.578;5.456;2023-05-03T00:13:39;102772.91;;;2.94;100.00
58622;BME280;44389;51.578;5.456;2023-05-03T00:16:05;102773.38;;;2.90;100.00
58622;BME280;44389;51.578;5.456;2023-05-03T00:18:30;102772.81;;;2.84;100.00
58622;BME280;44389;51.578;5.456;2023-05-03T00:20:57;102776.72;;;2.80;100.00
58622;BME280;44389;51.578;5.456;2023-05-03T00:23:24;102773.44;;;2.82;100.00
58622;BME280;44389;51.578;5.456;2023-05-03T00:25:56;102770.00;;;2.72;100.00
58622;BME280;44389;51.578;5.456;2023-05-03T00:28:22;102770.31;;;2.75;100.00
58622;BME280;44389;51.578;5.456;2023-05-03T00:30:48;102777.03;;;2.75;100.00
58622;BME280;44389;51.578;5.456;2023-05-03T00:33:14;102776.44;;;2.77;100.00
58622;BME280;44389;51.578;5.456;2023-05-03T00:35:40;102775.28;;;2.74;100.00
58622;BME280;44389;51.578;5.456;2023-05-03T00:38:06;102777.38;;;2.69;100.00
58622;BME280;44389;51.578;5.456;2023-05-03T00:40:31;102772.25;;;2.78;100.00
58622;BME280;44389;51.578;5.456;2023-05-03T00:42:56;102771.09;;;2.66;100.00
58622;BME280;44389;51.578;5.456;2023-05-03T00:45:22;102780.06;;;2.71;100.00
58622;BME280;44389;51.578;5.456;2023-05-03T00:47:47;102775.88;;;2.71;100.00
58622;BME280;44389;51.578;5.456;2023-05-03T00:50:13;102786.38;;;2.66;100.00
58622;BME280;44389;51.578;5.456;2023-05-03T00:52:38;102781.75;;;2.61;100.00
58622;BME280;44389;51.578;5.456;2023-05-03T00:55:05;102772.97;;;2.49;100.00
58622;BME280;44389;51.578;5.456;2023-05-03T00:57:31;102773.88;;;2.50;100.00
58622;BME280;44389;51.578;5.456;2023-05-03T00:59:57;102773.59;;;2.46;100.00
58622;BME280;44389;51.578;5.456;2023-05-03T01:02:23;102766.56;;;2.44;100.00
58622;BME280;44389;51.578;5.456;2023-05-03T01:04:49;102767.63;;;2.37;100.00
58622;BME280;44389;51.578;5.456;2023-05-03T01:18:40;102768.13;;;2.24;100.00
58622;BME280;44389;51.578;5.456;2023-05-03T01:21:09;102772.19;;;2.22;100.00
58622;BME280;44389;51.578;5.456;2023-05-03T01:23:42;102764.09;;;2.26;100.00
58622;BME280;44389;51.578;5.456;2023-05-03T01:28:41;102767.53;;;2.18;100.00
58622;BME280;44389;51.578;5.456;2023-05-03T01:31:07;102777.31;;;2.13;100.00
58622;BME280;44389;51.578;5.456;2023-05-03T01:36:40;102782.66;;;2.25;100.00
58622;BME280;44389;51.578;5.456;2023-05-03T01:39:11;102780.25;;;2.18;100.00
58622;BME280;44389;51.578;5.456;2023-05-03T01:41:40;102780.56;;;2.21;100.00
58622;BME280;44389;51.578;5.456;2023-05-03T01:44:08;102778.44;;;2.35;100.00
58622;BME280;44389;51.578;5.456;2023-05-03T01:46:41;102781.47;;;2.22;100.00
58622;BME280;44389;51.578;5.456;2023-05-03T01:49:06;102781.31;;;2.20;100.00
58622;BME280;44389;51.578;5.456;2023-05-03T01:51:31;102777.13;;;2.21;100.00
58622;BME280;44389;51.578;5.456;2023-05-03T01:53:56;102769.78;;;2.24;100.00
58622;BME280;44389;51.578;5.456;2023-05-03T01:56:22;102771.16;;;2.20;100.00
58622;BME280;44389;51.578;5.456;2023-05-03T01:58:47;102778.19;;;2.14;100.00
58622;BME280;44389;51.578;5.456;2023-05-03T02:01:12;102780.00;;;2.15;100.00
58622;BME280;44389;51.578;5.456;2023-05-03T02:03:37;102774.63;;;2.12;100.00
58622;BME280;44389;51.578;5.456;2023-05-03T02:06:03;102775.19;;;2.18;100.00
58622;BME280;44389;51.578;5.456;2023-05-03T02:08:28;102777.28;;;2.22;100.00
58622;BME280;44389;51.578;5.456;2023-05-03T02:10:53;102783.28;;;2.14;100.00
58622;BME280;44389;51.578;5.456;2023-05-03T02:13:19;102777.91;;;2.11;100.00
58622;BME280;44389;51.578;5.456;2023-05-03T02:15:44;102783.47;;;2.07;100.00
58622;BME280;44389;51.578;5.456;2023-05-03T02:18:09;102778.03;;;2.21;100.00
58622;BME280;44389;51.578;5.456;2023-05-03T02:20:35;102770.75;;;2.07;100.00
58622;BME280;44389;51.578;5.456;2023-05-03T02:23:05;102765.34;;;2.04;100.00
58622;BME280;44389;51.578;5.456;2023-05-03T02:25:30;102768.06;;;1.96;100.00
58622;BME280;44389;51.578;5.456;2023-05-03T02:27:56;102766.88;;;1.93;100.00
58622;BME280;44389;51.578;5.456;2023-05-03T02:30:21;102760.47;;;1.88;100.00
58622;BME280;44389;51.578;5.456;2023-05-03T02:32:46;102762.09;;;1.87;100.00
58622;BME280;44389;51.578;5.456;2023-05-03T02:35:11;102763.13;;;1.98;100.00
58622;BME280;44389;51.578;5.456;2023-05-03T02:37:37;102752.03;;;2.06;100.00
58622;BME280;44389;51.578;5.456;2023-05-03T02:40:02;102753.09;;;2.00;100.00
58622;BME280;44389;51.578;5.456;2023-05-03T02:42:29;102744.88;;;1.93;100.00
58622;BME280;44389;51.578;5.456;2023-05-03T02:44:55;102741.44;;;2.02;100.00
58622;BME280;44389;51.578;5.456;2023-05-03T02:47:20;102734.84;;;1.95;100.00
58622;BME280;44389;51.578;5.456;2023-05-03T02:49:46;102728.28;;;1.88;100.00
58622;BME280;44389;51.578;5.456;2023-05-03T02:52:12;102726.19;;;1.93;100.00
58622;BME280;44389;51.578;5.456;2023-05-03T02:54:37;102716.31;;;1.87;100.00
58622;BME280;44389;51.578;5.456;2023-05-03T02:57:02;102714.38;;;1.93;100.00
58622;BME280;44389;51.578;5.456;2023-05-03T02:59:28;102713.34;;;1.91;100.00
58622;BME280;44389;51.578;5.456;2023-05-03T03:01:53;102706.94;;;1.86;100.00
58622;BME280;44389;51.578;5.456;2023-05-03T03:04:19;102710.94;;;1.93;100.00
58622;BME280;44389;51.578;5.456;2023-05-03T03:06:44;102715.09;;;1.92;100.00
58622;BME280;44389;51.578;5.456;2023-05-03T03:09:10;102723.03;;;1.95;100.00
58622;BME280;44389;51.578;5.456;2023-05-03T03:11:36;102732.63;;;1.89;100.00
58622;BME280;44389;51.578;5.456;2023-05-03T03:14:02;102738.66;;;1.81;100.00
58622;BME280;44389;51.578;5.456;2023-05-03T03:16:27;102739.06;;;1.77;100.00
58622;BME280;44389;51.578;5.456;2023-05-03T03:18:52;102737.00;;;1.73;100.00
58622;BME280;44389;51.578;5.456;2023-05-03T03:21:18;102731.44;;;1.77;100.00
58622;BME280;44389;51.578;5.456;2023-05-03T03:23:43;102732.50;;;1.79;100.00
58622;BME280;44389;51.578;5.456;2023-05-03T03:26:08;102743.13;;;1.75;100.00
58622;BME280;44389;51.578;5.456;2023-05-03T03:28:33;102747.94;;;1.72;100.00
58622;BME280;44389;51.578;5.456;2023-05-03T03:30:59;102750.31;;;1.70;100.00
58622;BME280;44389;51.578;5.456;2023-05-03T03:33:24;102752.72;;;1.69;100.00
58622;BME280;44389;51.578;5.456;2023-05-03T03:35:49;102750.75;;;1.66;100.00
58622;BME280;44389;51.578;5.456;2023-05-03T03:38:15;102743.28;;;1.76;100.00
58622;BME280;44389;51.578;5.456;2023-05-03T03:40:40;102745.97;;;1.78;100.00
58622;BME280;44389;51.578;5.456;2023-05-03T03:43:05;102736.69;;;1.78;100.00
58622;BME280;44389;51.578;5.456;2023-05-03T03:45:31;102736.69;;;1.78;100.00
58622;BME280;44389;51.578;5.456;2023-05-03T03:47:56;102738.03;;;1.84;100.00
58622;BME280;44389;51.578;5.456;2023-05-03T03:50:23;102736.53;;;1.86;100.00
58622;BME280;44389;51.578;5.456;2023-05-03T03:52:48;102730.97;;;1.90;100.00
58622;BME280;44389;51.578;5.456;2023-05-03T03:55:14;102733.38;;;1.79;100.00
58622;BME280;44389;51.578;5.456;2023-05-03T03:57:39;102729.97;;;1.79;100.00
58622;BME280;44389;51.578;5.456;2023-05-03T04:00:04;102734.59;;;1.83;100.00
58622;BME280;44389;51.578;5.456;2023-05-03T04:02:35;102737.78;;;1.72;100.00
58622;BME280;44389;51.578;5.456;2023-05-03T04:05:01;102744.94;;;1.76;100.00
58622;BME280;44389;51.578;5.456;2023-05-03T04:07:26;102739.41;;;1.71;100.00
58622;BME280;44389;51.578;5.456;2023-05-03T04:09:51;102747.47;;;1.67;100.00
58622;BME280;44389;51.578;5.456;2023-05-03T04:12:17;102742.84;;;1.54;100.00
58622;BME280;44389;51.578;5.456;2023-05-03T04:14:42;102749.88;;;1.57;100.00
58622;BME280;44389;51.578;5.456;2023-05-03T04:17:08;102757.38;;;1.55;100.00
58622;BME280;44389;51.578;5.456;2023-05-03T04:19:33;102751.81;;;1.51;100.00
58622;BME280;44389;51.578;5.456;2023-05-03T04:21:59;102750.75;;;1.57;100.00
58622;BME280;44389;51.578;5.456;2023-05-03T04:24:24;102755.28;;;1.51;100.00
58622;BME280;44389;51.578;5.456;2023-05-03T04:26:51;102753.16;;;1.47;100.00
58622;BME280;44389;51.578;5.456;2023-05-03T04:29:17;102755.88;;;1.48;100.00
58622;BME280;44389;51.578;5.456;2023-05-03T04:31:44;102758.84;;;1.53;100.00
58622;BME280;44389;51.578;5.456;2023-05-03T04:34:09;102759.31;;;1.49;100.00
58622;BME280;44389;51.578;5.456;2023-05-03T04:36:39;102761.25;;;1.43;100.00
58622;BME280;44389;51.578;5.456;2023-05-03T04:39:05;102764.25;;;1.39;100.00
58622;BME280;44389;51.578;5.456;2023-05-03T04:41:31;102765.44;;;1.42;100.00
58622;BME280;44389;51.578;5.456;2023-05-03T04:43:57;102773.81;;;1.50;100.00
58622;BME280;44389;51.578;5.456;2023-05-03T04:46:22;102780.09;;;1.45;100.00
58622;BME280;44389;51.578;5.456;2023-05-03T04:48:47;102777.09;;;1.49;100.00
58622;BME280;44389;51.578;5.456;2023-05-03T04:51:13;102795.94;;;1.51;100.00
58622;BME280;44389;51.578;5.456;2023-05-03T04:53:38;102798.91;;;1.56;100.00
58622;BME280;44389;51.578;5.456;2023-05-03T04:56:04;102810.28;;;1.59;100.00
58622;BME280;44389;51.578;5.456;2023-05-03T04:58:30;102800.41;;;1.62;100.00
58622;BME280;44389;51.578;5.456;2023-05-03T05:00:55;102804.59;;;1.71;100.00
58622;BME280;44389;51.578;5.456;2023-05-03T05:03:21;102809.22;;;1.75;100.00
58622;BME280;44389;51.578;5.456;2023-05-03T05:05:46;102813.13;;;1.80;100.00
58622;BME280;44389;51.578;5.456;2023-05-03T05:08:11;102817.00;;;1.85;100.00
58622;BME280;44389;51.578;5.456;2023-05-03T05:10:39;102815.06;;;1.91;100.00
58622;BME280;44389;51.578;5.456;2023-05-03T05:13:04;102821.75;;;2.00;100.00
58622;BME280;44389;51.578;5.456;2023-05-03T05:15:30;102822.63;;;2.09;100.00
58622;BME280;44389;51.578;5.456;2023-05-03T05:17:55;102820.69;;;2.15;100.00
58622;BME280;44389;51.578;5.456;2023-05-03T05:20:21;102817.38;;;2.25;100.00
58622;BME280;44389;51.578;5.456;2023-05-03T05:22:46;102808.81;;;2.33;100.00
58622;BME280;44389;51.578;5.456;2023-05-03T05:25:12;102816.44;;;2.42;100.00
58622;BME280;44389;51.578;5.456;2023-05-03T05:27:37;102818.50;;;2.55;100.00
58622;BME280;44389;51.578;5.456;2023-05-03T05:30:02;102814.25;;;2.64;100.00
58622;BME280;44389;51.578;5.456;2023-05-03T05:32:29;102821.13;;;2.74;100.00
58622;BME280;44389;51.578;5.456;2023-05-03T05:34:54;102816.13;;;2.84;100.00
58622;BME280;44389;51.578;5.456;2023-05-03T05:37:21;102818.28;;;2.99;100.00
58622;BME280;44389;51.578;5.456;2023-05-03T05:39:46;102819.00;;;3.06;100.00
58622;BME280;44389;51.578;5.456;2023-05-03T05:42:12;102823.56;;;3.19;100.00
58622;BME280;44389;51.578;5.456;2023-05-03T05:44:37;102813.31;;;3.28;100.00
58622;BME280;44389;51.578;5.456;2023-05-03T05:47:02;102815.31;;;3.41;100.00
58622;BME280;44389;51.578;5.456;2023-05-03T05:49:28;102815.41;;;3.51;100.00
58622;BME280;44389;51.578;5.456;2023-05-03T05:51:53;102815.59;;;3.63;100.00
58622;BME280;44389;51.578;5.456;2023-05-03T05:54:18;102814.75;;;3.73;100.00
58622;BME280;44389;51.578;5.456;2023-05-03T05:56:44;102814.03;;;3.84;100.00
58622;BME280;44389;51.578;5.456;2023-05-03T05:59:09;102823.56;;;3.95;100.00
58622;BME280;44389;51.578;5.456;2023-05-03T06:01:35;102819.78;;;4.11;100.00
58622;BME280;44389;51.578;5.456;2023-05-03T06:04:00;102825.19;;;4.24;100.00
58622;BME280;44389;51.578;5.456;2023-05-03T06:06:25;102824.34;;;4.34;100.00
58622;BME280;44389;51.578;5.456;2023-05-03T06:08:51;102823.75;;;4.47;100.00
58622;BME280;44389;51.578;5.456;2023-05-03T06:11:16;102826.88;;;4.64;100.00
58622;BME280;44389;51.578;5.456;2023-05-03T06:13:42;102823.56;;;4.75;100.00
58622;BME280;44389;51.578;5.456;2023-05-03T06:16:08;102819.63;;;4.89;100.00
58622;BME280;44389;51.578;5.456;2023-05-03T06:18:33;102816.44;;;5.02;100.00
58622;BME280;44389;51.578;5.456;2023-05-03T06:20:58;102814.66;;;5.11;100.00
58622;BME280;44389;51.578;5.456;2023-05-03T06:23:23;102811.31;;;5.22;100.00
58622;BME280;44389;51.578;5.456;2023-05-03T06:25:49;102807.88;;;5.32;99.68
58622;BME280;44389;51.578;5.456;2023-05-03T06:28:14;102806.97;;;5.42;98.17
58622;BME280;44389;51.578;5.456;2023-05-03T06:30:39;102812.06;;;5.52;99.03
58622;BME280;44389;51.578;5.456;2023-05-03T06:33:05;102818.72;;;5.60;98.58
58622;BME280;44389;51.578;5.456;2023-05-03T06:35:30;102809.72;;;5.76;98.98
58622;BME280;44389;51.578;5.456;2023-05-03T06:37:56;102806.00;;;5.83;97.54
58622;BME280;44389;51.578;5.456;2023-05-03T06:40:21;102804.06;;;5.90;96.69
58622;BME280;44389;51.578;5.456;2023-05-03T06:42:49;102797.25;;;6.01;97.45
58622;BME280;44389;51.578;5.456;2023-05-03T06:45:15;102798.63;;;6.08;97.19
58622;BME280;44389;51.578;5.456;2023-05-03T06:47:40;102802.69;;;6.16;96.94
58622;BME280;44389;51.578;5.456;2023-05-03T06:50:07;102804.44;;;6.28;95.32
58622;BME280;44389;51.578;5.456;2023-05-03T06:52:32;102791.81;;;6.41;96.02
58622;BME280;44389;51.578;5.456;2023-05-03T06:54:58;102799.06;;;6.47;95.58
58622;BME280;44389;51.578;5.456;2023-05-03T06:57:23;102791.31;;;6.57;93.50
58622;BME280;44389;51.578;5.456;2023-05-03T06:59:49;102794.47;;;6.65;91.37
58622;BME280;44389;51.578;5.456;2023-05-03T07:02:14;102799.19;;;6.70;91.36
58622;BME280;44389;51.578;5.456;2023-05-03T07:04:39;102790.59;;;6.70;89.76
58622;BME280;44389;51.578;5.456;2023-05-03T07:07:05;102795.66;;;6.80;88.11
58622;BME280;44389;51.578;5.456;2023-05-03T07:09:31;102796.06;;;6.97;89.64
58622;BME280;44389;51.578;5.456;2023-05-03T07:11:56;102806.78;;;7.03;89.07
58622;BME280;44389;51.578;5.456;2023-05-03T07:14:22;102799.88;;;7.14;88.19
58622;BME280;44389;51.578;5.456;2023-05-03T07:16:47;102803.56;;;7.17;86.76
58622;BME280;44389;51.578;5.456;2023-05-03T07:19:13;102800.91;;;7.28;87.10
58622;BME280;44389;51.578;5.456;2023-05-03T07:21:38;102796.47;;;7.37;87.37
58622;BME280;44389;51.578;5.456;2023-05-03T07:24:04;102804.53;;;7.53;88.62
58622;BME280;44389;51.578;5.456;2023-05-03T07:26:29;102797.75;;;7.66;88.02
58622;BME280;44389;51.578;5.456;2023-05-03T07:28:54;102800.38;;;7.91;87.62
58622;BME280;44389;51.578;5.456;2023-05-03T07:31:22;102797.81;;;7.91;85.48
58622;BME280;44389;51.578;5.456;2023-05-03T07:33:47;102795.22;;;8.03;89.04
58622;BME280;44389;51.578;5.456;2023-05-03T07:36:13;102793.75;;;8.18;84.81
58622;BME280;44389;51.578;5.456;2023-05-03T07:38:38;102794.19;;;8.24;83.76
58622;BME280;44389;51.578;5.456;2023-05-03T07:41:03;102792.25;;;8.34;83.05
58622;BME280;44389;51.578;5.456;2023-05-03T07:43:29;102778.28;;;8.42;82.78
58622;BME280;44389;51.578;5.456;2023-05-03T07:45:54;102783.63;;;8.45;80.44
58622;BME280;44389;51.578;5.456;2023-05-03T07:48:20;102784.81;;;8.62;80.49
58622;BME280;44389;51.578;5.456;2023-05-03T07:50:45;102771.09;;;8.62;78.84
58622;BME280;44389;51.578;5.456;2023-05-03T07:53:13;102767.72;;;8.88;79.58
58622;BME280;44389;51.578;5.456;2023-05-03T07:55:38;102759.53;;;8.94;83.53
58622;BME280;44389;51.578;5.456;2023-05-03T07:58:04;102757.16;;;9.10;79.89
58622;BME280;44389;51.578;5.456;2023-05-03T08:00:29;102753.13;;;9.14;73.75
58622;BME280;44389;51.578;5.456;2023-05-03T08:02:55;102758.09;;;9.11;73.89
58622;BME280;44389;51.578;5.456;2023-05-03T08:05:21;102747.78;;;9.11;71.66
58622;BME280;44389;51.578;5.456;2023-05-03T08:07:50;102742.75;;;9.26;73.96
58622;BME280;44389;51.578;5.456;2023-05-03T08:10:16;102745.81;;;9.20;69.99
58622;BME280;44389;51.578;5.456;2023-05-03T08:12:42;102742.97;;;9.29;73.01
58622;BME280;44389;51.578;5.456;2023-05-03T08:15:07;102730.31;;;9.45;71.62
58622;BME280;44389;51.578;5.456;2023-05-03T08:17:41;102738.31;;;9.50;70.78
58622;BME280;44389;51.578;5.456;2023-05-03T08:20:07;102734.25;;;9.53;71.16
58622;BME280;44389;51.578;5.456;2023-05-03T08:22:32;102746.22;;;9.66;71.87
58622;BME280;44389;51.578;5.456;2023-05-03T08:24:59;102735.41;;;9.72;71.27
58622;BME280;44389;51.578;5.456;2023-05-03T08:27:25;102738.88;;;9.86;71.09
58622;BME280;44389;51.578;5.456;2023-05-03T08:29:52;102739.34;;;10.07;68.33
58622;BME280;44389;51.578;5.456;2023-05-03T08:32:17;102737.97;;;9.99;66.38
58622;BME280;44389;51.578;5.456;2023-05-03T08:34:44;102736.63;;;10.19;67.21
58622;BME280;44389;51.578;5.456;2023-05-03T08:37:10;102728.56;;;10.41;66.99
58622;BME280;44389;51.578;5.456;2023-05-03T08:39:35;102724.94;;;10.52;67.54
58622;BME280;44389;51.578;5.456;2023-05-03T08:42:05;102725.81;;;10.53;65.95
58622;BME280;44389;51.578;5.456;2023-05-03T08:44:31;102724.47;;;10.60;64.23
58622;BME280;44389;51.578;5.456;2023-05-03T08:47:00;102726.19;;;10.59;64.07
58622;BME280;44389;51.578;5.456;2023-05-03T08:49:26;102721.72;;;10.57;62.39
58622;BME280;44389;51.578;5.456;2023-05-03T08:51:52;102728.22;;;10.65;65.24
58622;BME280;44389;51.578;5.456;2023-05-03T08:54:19;102722.81;;;10.75;63.45
58622;BME280;44389;51.578;5.456;2023-05-03T08:56:45;102729.41;;;10.85;62.71
58622;BME280;44389;51.578;5.456;2023-05-03T08:59:12;102734.22;;;10.94;64.05
58622;BME280;44389;51.578;5.456;2023-05-03T09:01:39;102736.72;;;11.07;63.13
58622;BME280;44389;51.578;5.456;2023-05-03T09:04:06;102738.22;;;11.18;63.63
58622;BME280;44389;51.578;5.456;2023-05-03T09:06:32;102737.97;;;11.29;62.47
58622;BME280;44389;51.578;5.456;2023-05-03T09:08:58;102733.47;;;11.41;60.40
58622;BME280;44389;51.578;5.456;2023-05-03T09:11:28;102742.66;;;11.36;57.64
58622;BME280;44389;51.578;5.456;2023-05-03T09:14:10;102739.28;;;11.37;57.47
58622;BME280;44389;51.578;5.456;2023-05-03T09:16:37;102738.63;;;11.41;57.53
58622;BME280;44389;51.578;5.456;2023-05-03T09:19:04;102733.53;;;11.58;57.09
58622;BME280;44389;51.578;5.456;2023-05-03T09:21:35;102736.84;;;11.86;58.04
58622;BME280;44389;51.578;5.456;2023-05-03T09:24:01;102743.97;;;11.91;57.43
58622;BME280;44389;51.578;5.456;2023-05-03T09:26:34;102734.84;;;12.12;59.15
58622;BME280;44389;51.578;5.456;2023-05-03T09:29:01;102731.03;;;11.91;54.13
58622;BME280;44389;51.578;5.456;2023-05-03T09:31:28;102733.28;;;12.16;55.90
58622;BME280;44389;51.578;5.456;2023-05-03T09:33:55;102729.06;;;12.01;55.16
58622;BME280;44389;51.578;5.456;2023-05-03T09:36:20;102729.16;;;12.36;57.12
58622;BME280;44389;51.578;5.456;2023-05-03T09:38:46;102726.00;;;12.58;55.28
58622;BME280;44389;51.578;5.456;2023-05-03T09:41:12;102729.28;;;12.72;53.86
58622;BME280;44389;51.578;5.456;2023-05-03T09:43:50;102730.50;;;12.62;53.74
58622;BME280;44389;51.578;5.456;2023-05-03T09:46:16;102724.47;;;12.62;52.83
58622;BME280;44389;51.578;5.456;2023-05-03T09:48:42;102715.25;;;13.20;55.57
58622;BME280;44389;51.578;5.456;2023-05-03T09:51:08;102719.59;;;13.75;54.01
58622;BME280;44389;51.578;5.456;2023-05-03T09:53:36;102724.78;;;13.75;50.67
58622;BME280;44389;51.578;5.456;2023-05-03T09:56:03;102703.56;;;14.81;50.18
58622;BME280;44389;51.578;5.456;2023-05-03T09:58:30;102722.06;;;14.68;53.84
58622;BME280;44389;51.578;5.456;2023-05-03T10:00:57;102711.28;;;15.01;45.43
58622;BME280;44389;51.578;5.456;2023-05-03T10:03:33;102712.44;;;15.52;45.48
58622;BME280;44389;51.578;5.456;2023-05-03T10:06:02;102708.72;;;16.37;44.57
58622;BME280;44389;51.578;5.456;2023-05-03T10:08:40;102716.31;;;16.57;43.95
58622;BME280;44389;51.578;5.456;2023-05-03T10:11:07;102708.63;;;17.11;41.53
58622;BME280;44389;51.578;5.456;2023-05-03T10:13:34;102713.13;;;17.73;39.16
58622;BME280;44389;51.578;5.456;2023-05-03T10:16:05;102707.22;;;18.40;38.51
58622;BME280;44389;51.578;5.456;2023-05-03T10:18:34;102714.53;;;19.23;35.36
58622;BME280;44389;51.578;5.456;2023-05-03T10:21:07;102712.06;;;18.91;34.32
58622;BME280;44389;51.578;5.456;2023-05-03T10:23:34;102719.94;;;19.31;35.12
58622;BME280;44389;51.578;5.456;2023-05-03T10:28:37;102707.03;;;19.79;33.06
58622;BME280;44389;51.578;5.456;2023-05-03T10:31:02;102704.81;;;20.40;33.61
58622;BME280;44389;51.578;5.456;2023-05-03T10:33:28;102703.84;;;20.35;32.44
58622;BME280;44389;51.578;5.456;2023-05-03T10:35:54;102713.19;;;20.22;35.28
58622;BME280;44389;51.578;5.456;2023-05-03T10:38:25;102721.41;;;20.42;32.96
58622;BME280;44389;51.578;5.456;2023-05-03T10:40:51;102725.06;;;19.25;32.45
58622;BME280;44389;51.578;5.456;2023-05-03T10:46:04;102710.84;;;19.93;33.05
58622;BME280;44389;51.578;5.456;2023-05-03T10:48:31;102710.78;;;19.88;33.35
58622;BME280;44389;51.578;5.456;2023-05-03T10:50:57;102712.88;;;20.52;32.96
58622;BME280;44389;51.578;5.456;2023-05-03T10:53:42;102709.22;;;20.93;30.10
58622;BME280;44389;51.578;5.456;2023-05-03T10:56:10;102709.41;;;20.55;31.20
58622;BME280;44389;51.578;5.456;2023-05-03T10:58:44;102703.44;;;20.61;32.26
58622;BME280;44389;51.578;5.456;2023-05-03T11:01:11;102698.66;;;20.87;30.82
58622;BME280;44389;51.578;5.456;2023-05-03T11:06:31;102707.50;;;20.95;32.50
58622;BME280;44389;51.578;5.456;2023-05-03T11:08:58;102695.72;;;21.25;31.32
58622;BME280;44389;51.578;5.456;2023-05-03T11:11:23;102695.09;;;20.85;32.40
58622;BME280;44389;51.578;5.456;2023-05-03T11:13:52;102690.56;;;21.31;30.81
58622;BME280;44389;51.578;5.456;2023-05-03T11:16:18;102690.06;;;20.97;31.98
58622;BME280;44389;51.578;5.456;2023-05-03T11:18:44;102692.34;;;21.32;30.53
58622;BME280;44389;51.578;5.456;2023-05-03T11:21:10;102686.22;;;21.99;30.33
58622;BME280;44389;51.578;5.456;2023-05-03T11:23:37;102685.75;;;21.62;29.16
58622;BME280;44389;51.578;5.456;2023-05-03T11:26:05;102679.94;;;21.85;29.29
58622;BME280;44389;51.578;5.456;2023-05-03T11:28:31;102683.56;;;22.87;28.81
58622;BME280;44389;51.578;5.456;2023-05-03T11:30:56;102673.47;;;23.52;28.47
58622;BME280;44389;51.578;5.456;2023-05-03T11:33:22;102667.34;;;23.56;27.68
58622;BME280;44389;51.578;5.456;2023-05-03T11:35:47;102664.94;;;24.12;27.51
58622;BME280;44389;51.578;5.456;2023-05-03T11:38:12;102657.66;;;23.52;26.63
58622;BME280;44389;51.578;5.456;2023-05-03T11:40:38;102650.78;;;23.87;27.34
58622;BME280;44389;51.578;5.456;2023-05-03T11:43:04;102655.88;;;23.42;28.20
58622;BME280;44389;51.578;5.456;2023-05-03T11:45:38;102652.19;;;23.12;29.07
58622;BME280;44389;51.578;5.456;2023-05-03T11:48:05;102645.44;;;22.35;28.93
58622;BME280;44389;51.578;5.456;2023-05-03T11:53:09;102643.78;;;22.41;28.97
58622;BME280;44389;51.578;5.456;2023-05-03T11:55:38;102648.00;;;22.26;30.00
58622;BME280;44389;51.578;5.456;2023-05-03T11:58:03;102646.38;;;22.38;29.74
58622;BME280;44389;51.578;5.456;2023-05-03T12:00:29;102644.31;;;22.09;30.27
58622;BME280;44389;51.578;5.456;2023-05-03T12:02:57;102643.88;;;21.68;29.82
58622;BME280;44389;51.578;5.456;2023-05-03T12:05:23;102629.00;;;22.53;29.23
58622;BME280;44389;51.578;5.456;2023-05-03T12:07:49;102630.94;;;22.81;28.24
58622;BME280;44389;51.578;5.456;2023-05-03T12:10:18;102627.50;;;22.91;28.19
58622;BME280;44389;51.578;5.456;2023-05-03T12:12:53;102629.91;;;22.62;29.01
58622;BME280;44389;51.578;5.456;2023-05-03T12:15:35;102621.22;;;22.66;28.78
58622;BME280;44389;51.578;5.456;2023-05-03T12:18:08;102618.81;;;23.05;29.69
58622;BME280;44389;51.578;5.456;2023-05-03T12:20:35;102611.91;;;23.16;29.60
58622;BME280;44389;51.578;5.456;2023-05-03T12:23:03;102606.25;;;22.60;29.46
58622;BME280;44389;51.578;5.456;2023-05-03T12:25:35;102607.75;;;22.29;31.14
58622;BME280;44389;51.578;5.456;2023-05-03T12:28:03;102607.72;;;22.27;28.36
58622;BME280;44389;51.578;5.456;2023-05-03T12:30:29;102597.94;;;22.09;28.43
58622;BME280;44389;51.578;5.456;2023-05-03T12:32:55;102594.97;;;21.77;30.27
58622;BME280;44389;51.578;5.456;2023-05-03T12:35:21;102599.41;;;21.82;28.59
58622;BME280;44389;51.578;5.456;2023-05-03T12:37:48;102596.22;;;21.34;28.94
58622;BME280;44389;51.578;5.456;2023-05-03T12:40:15;102583.75;;;21.93;28.57
58622;BME280;44389;51.578;5.456;2023-05-03T12:42:40;102580.50;;;22.17;27.90
58622;BME280;44389;51.578;5.456;2023-05-03T12:45:06;102573.00;;;21.65;27.84
58622;BME280;44389;51.578;5.456;2023-05-03T12:47:32;102575.56;;;21.62;28.68
58622;BME280;44389;51.578;5.456;2023-05-03T12:49:58;102565.69;;;21.41;27.92
58622;BME280;44389;51.578;5.456;2023-05-03T12:52:23;102552.78;;;22.53;27.68
58622;BME280;44389;51.578;5.456;2023-05-03T12:54:48;102556.84;;;22.16;26.72
58622;BME280;44389;51.578;5.456;2023-05-03T12:57:14;102551.13;;;22.66;26.51
58622;BME280;44389;51.578;5.456;2023-05-03T12:59:40;102553.97;;;23.04;27.23
58622;BME280;44389;51.578;5.456;2023-05-03T13:02:11;102550.75;;;22.17;27.95
58622;BME280;44389;51.578;5.456;2023-05-03T13:04:40;102549.78;;;22.09;27.28
58622;BME280;44389;51.578;5.456;2023-05-03T13:07:05;102544.28;;;22.96;27.02
58622;BME280;44389;51.578;5.456;2023-05-03T13:09:31;102543.63;;;23.55;25.28
58622;BME280;44389;51.578;5.456;2023-05-03T13:11:57;102541.97;;;23.86;24.69
58622;BME280;44389;51.578;5.456;2023-05-03T13:14:23;102538.47;;;23.99;25.30
58622;BME280;44389;51.578;5.456;2023-05-03T13:16:49;102533.97;;;23.52;25.34